Time;durP1;ratioP1;P1;durP2;ratioP2;P2;SDS_P1;SDS_P2;PMS_P1;PMS_P2;Temp;Humidity;BMP_temperature;BMP_pressure;BME280_temperature;BME280_humidity;BME280_pressure;Samples;Min_cycle;Max_cycle;Signal;HPM_P1;HPM_P2
2022/04/07 04:27:53;;;;;;;1.00;1.00;;;;;;;20.07;44.63;95893.16;1984155;23;20512;-94
2022/04/07 06:35:16;;;;;;;0.90;0.90;;;;;;;17.84;44.35;95485.22;4165834;27;20226;-91
2022/04/07 06:37:53;;;;;;;1.20;1.10;;;;;;;17.84;44.35;95516.56;4856552;29;20183;-91
2022/04/07 06:40:22;;;;;;;1.10;1.00;;;;;;;14.04;43.85;94857.69;4894749;29;20246;-92
2022/04/07 06:42:50;;;;;;;1.73;1.03;;;;;;;17.14;44.08;95373.47;4887612;29;20231;-93
2022/04/07 06:45:23;;;;;;;1.33;1.00;;;;;;;15.69;44.14;95128.19;4878357;29;20221;-92
2022/04/07 06:47:50;;;;;;;0.90;0.90;;;;;;;15.32;44.07;95046.66;4878218;29;20227;-92
2022/04/07 06:50:17;;;;;;;1.00;1.00;;;;;;;16.27;44.25;95290.28;4876523;29;20198;-92
2022/04/07 06:52:45;;;;;;;0.90;0.90;;;;;;;17.83;44.16;95502.13;4876093;29;20213;-92
2022/04/07 06:55:13;;;;;;;1.00;1.00;;;;;;;15.27;43.97;95030.56;4876788;29;20183;-90
2022/04/07 06:58:08;;;;;;;1.10;1.00;;;;;;;16.17;44.23;95219.22;4891113;29;20207;-92
2022/04/07 07:00:41;;;;;;;3.20;1.20;;;;;;;14.50;44.06;94943.47;4909523;29;20231;-91
2022/04/07 07:03:08;;;;;;;1.00;1.00;;;;;;;16.88;44.30;95363.00;4887565;29;20270;-92
2022/04/07 07:05:35;;;;;;;1.00;1.00;;;;;;;19.99;44.36;95815.75;4904950;29;20187;-91
2022/04/07 07:08:17;;;;;;;2.47;1.00;;;;;;;14.97;44.32;95030.09;4886534;29;20183;-90
2022/04/07 07:10:46;;;;;;;0.90;0.90;;;;;;;16.17;43.85;95182.03;4889278;29;20166;-90
2022/04/07 07:13:13;;;;;;;1.00;1.00;;;;;;;16.69;44.13;95328.06;4889904;29;20296;-91
2022/04/07 07:15:40;;;;;;;2.43;0.90;;;;;;;16.11;44.14;95214.88;4890660;29;20202;-93
2022/04/07 07:18:07;;;;;;;0.90;0.90;;;;;;;18.88;44.06;95611.78;4905582;29;20211;-91
2022/04/07 07:20:34;;;;;;;1.10;1.00;;;;;;;17.09;44.14;95301.50;4904550;29;20183;-89
2022/04/07 07:23:04;;;;;;;0.90;0.90;;;;;;;15.85;44.28;95136.88;4890814;29;20210;-90
2022/04/07 07:25:31;;;;;;;0.90;0.90;;;;;;;15.65;43.74;95093.56;4904583;29;20250;-92
2022/04/07 07:27:58;;;;;;;1.20;0.93;;;;;;;14.73;44.05;94881.47;4901886;29;20232;-90
2022/04/07 07:30:25;;;;;;;1.20;1.10;;;;;;;17.45;44.03;95394.19;4904959;29;20231;-93
2022/04/07 07:32:56;;;;;;;0.87;0.80;;;;;;;16.81;44.03;95280.03;4890391;29;20224;-90
2022/04/07 07:35:24;;;;;;;1.10;1.00;;;;;;;16.71;44.04;95227.53;4899864;29;20199;-91
2022/04/07 07:37:58;;;;;;;1.10;1.00;;;;;;;18.27;44.20;95478.91;4886459;29;21368;-92
2022/04/07 07:40:31;;;;;;;0.80;0.80;;;;;;;15.07;43.92;94981.41;4869711;29;20186;-93
2022/04/07 07:43:00;;;;;;;1.20;0.90;;;;;;;18.86;44.05;95552.38;4889424;29;20225;-92
2022/04/07 07:45:34;;;;;;;1.00;1.00;;;;;;;16.03;44.03;95063.66;4874536;29;20305;-92
2022/04/07 07:48:38;;;;;;;1.00;1.00;;;;;;;16.73;44.18;95227.53;4884379;29;20258;-93
2022/04/07 07:51:05;;;;;;;1.27;1.17;;;;;;;19.98;44.09;95722.25;4890272;29;20210;-93
2022/04/07 07:53:32;;;;;;;1.07;0.87;;;;;;;15.90;43.86;95052.50;4872724;29;20195;-93
2022/04/07 07:55:58;;;;;;;0.90;0.90;;;;;;;15.68;43.38;95039.56;4860726;29;20195;-92
2022/04/07 07:58:25;;;;;;;1.87;1.10;;;;;;;13.16;43.48;94594.78;4889177;29;20211;-92
2022/04/07 08:00:52;;;;;;;0.90;0.90;;;;;;;16.13;44.17;95089.09;4893166;29;20187;-93
2022/04/07 08:03:19;;;;;;;0.93;0.93;;;;;;;16.05;43.97;95122.78;4887990;29;20213;-92
2022/04/07 08:05:46;;;;;;;1.43;0.93;;;;;;;16.57;44.29;95124.25;4884594;29;20244;-92
2022/04/07 08:08:13;;;;;;;1.00;0.90;;;;;;;16.28;44.13;95144.16;4890409;29;20215;-92
2022/04/07 08:10:40;;;;;;;1.00;1.00;;;;;;;17.26;44.17;95224.72;4885526;29;20171;-92
2022/04/07 08:13:06;;;;;;;1.00;0.90;;;;;;;16.22;44.07;95055.41;4900197;29;20206;-92
2022/04/07 08:15:34;;;;;;;1.00;1.00;;;;;;;15.19;44.12;94941.91;4904727;29;20246;-92
2022/04/07 08:18:01;;;;;;;0.80;0.80;;;;;;;17.20;43.99;95206.91;4904128;29;20218;-92
2022/04/07 08:20:28;;;;;;;1.60;0.80;;;;;;;17.98;44.05;95357.50;4896918;29;20215;-91
2022/04/07 08:22:55;;;;;;;1.10;0.90;;;;;;;19.51;44.00;95597.03;4892172;29;20215;-93
2022/04/07 08:25:21;;;;;;;1.00;1.00;;;;;;;16.84;43.96;95200.63;4916622;29;20207;-94
2022/04/07 08:27:48;;;;;;;0.80;0.80;;;;;;;14.20;44.12;94736.72;4886906;29;20210;-92
2022/04/07 08:30:15;;;;;;;1.10;1.00;;;;;;;17.49;44.25;95258.81;4919688;29;20182;-92
2022/04/07 08:32:42;;;;;;;0.80;0.80;;;;;;;13.13;44.06;94514.94;4903595;29;20236;-92
2022/04/07 08:35:11;;;;;;;1.00;1.00;;;;;;;15.61;44.00;94985.53;4919281;29;20198;-93
2022/04/07 08:37:38;;;;;;;1.50;0.90;;;;;;;17.29;44.07;95209.50;4894269;29;20246;-93
2022/04/07 08:40:07;;;;;;;0.90;0.90;;;;;;;16.15;44.06;95013.13;4926139;29;20186;-92
2022/04/07 08:42:34;;;;;;;0.93;0.90;;;;;;;19.96;44.11;95668.69;4900464;29;20181;-93
2022/04/07 08:45:01;;;;;;;0.87;0.87;;;;;;;19.07;44.00;95527.09;4899073;29;20205;-93
2022/04/07 08:47:28;;;;;;;1.00;1.00;;;;;;;16.98;44.09;95207.53;4923134;29;20198;-93
2022/04/07 08:49:55;;;;;;;1.00;0.90;;;;;;;16.25;43.82;95032.63;4908128;29;20208;-93
2022/04/07 08:52:22;;;;;;;1.00;1.00;;;;;;;13.32;43.79;94561.41;4876110;29;20183;-93
2022/04/07 08:54:48;;;;;;;0.90;0.90;;;;;;;17.14;44.10;95178.91;4890979;29;20285;-92
2022/04/07 08:57:15;;;;;;;0.90;0.90;;;;;;;16.34;44.03;95037.78;4923739;29;20231;-92
2022/04/07 08:59:42;;;;;;;0.90;0.90;;;;;;;16.08;44.33;95084.81;4923354;29;20188;-92
2022/04/07 09:02:10;;;;;;;1.00;1.00;;;;;;;15.24;44.05;94904.88;4891228;29;20183;-91
2022/04/07 09:04:37;;;;;;;0.90;0.90;;;;;;;16.20;44.13;95016.56;4892493;29;20245;-92
2022/04/07 09:07:04;;;;;;;1.33;1.10;;;;;;;16.88;44.25;95194.75;4878274;29;20243;-91
2022/04/07 09:09:32;;;;;;;1.00;1.00;;;;;;;16.15;44.30;95016.50;4901866;29;20178;-92
2022/04/07 09:11:59;;;;;;;0.90;0.90;;;;;;;16.27;44.24;95048.72;4890362;29;20186;-91
2022/04/07 09:14:26;;;;;;;0.90;0.90;;;;;;;14.19;43.97;94666.00;4877030;29;20198;-93
2022/04/07 09:16:54;;;;;;;1.13;1.07;;;;;;;14.61;44.09;94782.75;4901355;29;20451;-92
2022/04/07 09:19:21;;;;;;;0.80;0.80;;;;;;;14.84;43.96;94772.94;4906282;29;20182;-93
2022/04/07 09:22:04;;;;;;;0.90;0.90;;;;;;;16.36;43.92;95096.97;4891170;29;20218;-92
2022/04/07 09:24:33;;;;;;;0.77;0.77;;;;;;;16.06;43.75;95002.91;4896964;29;20222;-93
2022/04/07 09:26:59;;;;;;;0.80;0.80;;;;;;;16.34;44.16;95020.06;4890408;29;20235;-91
2022/04/07 09:29:36;;;;;;;0.83;0.83;;;;;;;15.33;44.13;94846.81;4896184;29;20721;-93
2022/04/07 09:32:03;;;;;;;0.90;0.90;;;;;;;17.37;43.99;95177.44;4875016;29;20198;-93
2022/04/07 09:34:31;;;;;;;0.80;0.80;;;;;;;17.03;44.16;95113.72;4921468;29;20222;-93
2022/04/07 09:37:06;;;;;;;0.87;0.87;;;;;;;19.96;44.09;95643.19;4910606;29;20214;-93
2022/04/07 09:39:34;;;;;;;0.83;0.83;;;;;;;17.73;44.00;95242.94;4906711;29;20182;-92
2022/04/07 09:42:25;;;;;;;0.83;0.83;;;;;;;15.73;44.04;94909.72;4909402;29;20190;-92
2022/04/07 09:44:54;;;;;;;0.80;0.80;;;;;;;17.84;43.73;95237.09;4910133;29;20186;-93
2022/04/07 09:47:21;;;;;;;0.93;0.93;;;;;;;19.80;44.07;95548.81;4909332;29;20218;-93
2022/04/07 09:49:49;;;;;;;1.13;0.90;;;;;;;18.21;44.11;95266.19;4924101;29;20230;-92
2022/04/07 09:52:22;;;;;;;0.90;0.90;;;;;;;16.42;44.07;95059.88;4908609;29;20194;-92
2022/04/07 09:54:51;;;;;;;0.80;0.80;;;;;;;15.41;43.96;94819.97;4924225;29;20197;-93
2022/04/07 09:57:21;;;;;;;0.90;0.90;;;;;;;15.78;43.76;94889.50;4909363;29;20194;-93
2022/04/07 09:59:48;;;;;;;0.93;0.80;;;;;;;18.89;44.03;95366.63;4909850;29;20185;-92
2022/04/07 10:02:16;;;;;;;0.90;0.90;;;;;;;16.53;43.86;95009.31;4927775;29;20179;-91
2022/04/07 10:04:42;;;;;;;1.03;1.03;;;;;;;18.86;44.05;95356.44;4866694;29;20218;-92
2022/04/07 10:07:11;;;;;;;2.10;0.90;;;;;;;17.81;44.01;95195.59;4911305;29;20236;-92
2022/04/07 10:09:40;;;;;;;1.30;1.20;;;;;;;14.98;44.06;94756.25;4879865;29;20183;-93
2022/04/07 10:12:09;;;;;;;1.00;1.00;;;;;;;17.92;44.04;95199.88;4905246;29;20208;-93
2022/04/07 10:14:39;;;;;;;0.90;0.90;;;;;;;13.97;43.84;94505.88;4916260;29;20222;-93
2022/04/07 10:17:06;;;;;;;1.10;1.00;;;;;;;15.10;44.03;94699.03;4890530;29;20220;-92
2022/04/07 10:19:34;;;;;;;0.90;0.90;;;;;;;19.95;44.19;95513.19;4891144;29;20214;-91
2022/04/07 10:22:30;;;;;;;0.90;0.90;;;;;;;14.67;44.03;94636.28;4922698;29;20179;-92
2022/04/07 10:25:02;;;;;;;1.00;1.00;;;;;;;16.09;44.21;94867.00;4908666;29;20190;-90
2022/04/07 10:27:37;;;;;;;1.20;1.00;;;;;;;16.43;44.23;94913.69;4892367;29;20222;-93
2022/04/07 10:30:10;;;;;;;0.70;0.70;;;;;;;14.23;44.01;94557.53;4891465;29;20248;-92
2022/04/07 10:32:47;;;;;;;1.00;1.00;;;;;;;13.83;44.32;94454.41;4891410;29;20192;-90
2022/04/07 10:35:29;;;;;;;1.07;1.00;;;;;;;19.94;44.19;95469.00;4890424;29;20213;-93
2022/04/07 10:37:57;;;;;;;1.10;1.00;;;;;;;14.38;44.04;94511.34;4933951;29;20212;-93
2022/04/07 10:40:37;;;;;;;1.00;1.00;;;;;;;14.42;44.41;94551.81;4909738;29;20186;-91
2022/04/07 10:43:03;;;;;;;0.70;0.70;;;;;;;19.42;44.47;95377.94;4925233;29;20213;-92
2022/04/07 10:45:31;;;;;;;0.80;0.80;;;;;;;16.29;44.44;94882.34;4921391;29;20219;-93
2022/04/07 10:48:20;;;;;;;0.83;0.83;;;;;;;19.91;44.39;95456.25;4890605;29;20237;-90
2022/04/07 10:50:57;;;;;;;1.00;0.90;;;;;;;16.78;44.28;94957.13;4921627;29;20194;-92
2022/04/07 10:53:32;;;;;;;3.80;1.03;;;;;;;19.93;44.30;95497.03;4890487;29;20202;-92
2022/04/07 10:56:06;;;;;;;0.90;0.90;;;;;;;19.92;44.53;95442.66;4918285;29;20182;-91
2022/04/07 10:58:37;;;;;;;0.90;0.90;;;;;;;16.05;44.28;94822.19;4905617;29;20182;-92
2022/04/07 11:01:04;;;;;;;0.90;0.90;;;;;;;14.84;44.48;94651.59;4896044;29;20194;-92
2022/04/07 11:03:31;;;;;;;0.80;0.80;;;;;;;18.38;44.07;95203.56;4878376;29;20209;-92
2022/04/07 11:06:03;;;;;;;0.90;0.90;;;;;;;14.00;44.02;94452.91;4901077;29;20182;-91
2022/04/07 11:08:30;;;;;;;0.90;0.90;;;;;;;17.81;44.52;95082.13;4885418;29;20271;-90
2022/04/07 11:10:57;;;;;;;0.90;0.90;;;;;;;14.55;44.02;94594.06;4891794;29;20223;-91
2022/04/07 11:13:43;;;;;;;0.90;0.90;;;;;;;13.27;44.05;94294.13;4912296;29;20203;-93
2022/04/07 11:16:14;;;;;;;1.10;1.00;;;;;;;15.03;44.04;94585.19;4908817;29;20198;-92
2022/04/07 11:19:03;;;;;;;0.70;0.70;;;;;;;18.68;44.25;95218.97;4906625;29;20228;-92
2022/04/07 11:21:45;;;;;;;1.17;1.00;;;;;;;16.16;44.01;94779.22;4912797;29;20194;-91
2022/04/07 11:24:23;;;;;;;1.13;1.03;;;;;;;14.98;44.38;94642.47;4867098;29;20243;-93
2022/04/07 11:26:53;;;;;;;0.83;0.83;;;;;;;18.36;44.45;95164.56;4881333;29;20194;-92
2022/04/07 11:29:32;;;;;;;0.80;0.80;;;;;;;16.04;44.10;94815.44;4875286;29;20527;-92
2022/04/07 11:32:07;;;;;;;0.80;0.80;;;;;;;16.07;44.17;94767.34;4881314;29;20183;-92
2022/04/07 11:34:39;;;;;;;0.70;0.70;;;;;;;19.96;44.23;95402.75;4886397;29;20246;-93
2022/04/07 11:37:14;;;;;;;0.90;0.80;;;;;;;19.02;44.25;95225.03;4920749;29;20226;-91
2022/04/07 11:39:45;;;;;;;0.90;0.90;;;;;;;16.76;44.09;94826.94;4933133;29;20200;-92
2022/04/07 11:42:17;;;;;;;0.80;0.80;;;;;;;14.42;43.99;94427.22;4880017;29;20190;-92
2022/04/07 11:44:45;;;;;;;0.90;0.90;;;;;;;18.86;44.17;95182.56;4881075;29;20229;-91
2022/04/07 11:47:21;;;;;;;0.83;0.83;;;;;;;17.15;43.98;94898.13;4901820;29;20213;-91
2022/04/07 11:49:49;;;;;;;0.90;0.90;;;;;;;18.43;44.09;95112.06;4903091;29;20190;-92
2022/04/07 11:52:30;;;;;;;0.80;0.80;;;;;;;19.96;44.08;95361.94;4897897;29;20187;-91
2022/04/07 11:54:58;;;;;;;0.87;0.87;;;;;;;18.27;43.76;95112.81;4898184;29;20270;-90
2022/04/07 11:57:27;;;;;;;0.90;0.90;;;;;;;17.17;44.33;94901.53;4900225;29;20186;-92
2022/04/07 11:59:58;;;;;;;0.83;0.83;;;;;;;19.94;44.08;95351.75;4890294;29;20179;-92
2022/04/07 12:02:25;;;;;;;0.90;0.90;;;;;;;18.14;44.17;95049.25;4888070;29;20221;-92
2022/04/07 12:04:59;;;;;;;0.80;0.80;;;;;;;17.10;44.16;94920.09;4897875;29;20226;-91
2022/04/07 12:07:27;;;;;;;0.90;0.90;;;;;;;15.16;43.82;94599.63;4884094;29;20235;-92
2022/04/07 12:09:56;;;;;;;1.10;0.80;;;;;;;15.51;44.08;94609.16;4894701;29;20171;-93
2022/04/07 12:12:24;;;;;;;1.13;1.03;;;;;;;16.18;44.04;94717.63;4878345;29;20501;-91
2022/04/07 12:14:50;;;;;;;0.93;0.90;;;;;;;16.02;44.18;94693.00;4898916;29;20186;-91
2022/04/07 12:17:17;;;;;;;0.90;0.90;;;;;;;17.11;44.08;94876.97;4916057;29;20206;-91
2022/04/07 12:19:45;;;;;;;0.97;0.93;;;;;;;19.94;43.99;95367.03;4883735;29;20221;-92
2022/04/07 12:22:13;;;;;;;0.87;0.87;;;;;;;18.49;44.25;95094.28;4878394;29;20186;-93
2022/04/07 12:25:03;;;;;;;0.90;0.90;;;;;;;16.47;43.95;94826.75;4920405;23;20222;-92
2022/04/07 12:27:31;;;;;;;0.70;0.70;;;;;;;17.11;43.86;94912.47;4904299;29;20213;-94
2022/04/07 12:29:59;;;;;;;1.00;0.90;;;;;;;18.06;44.04;95019.56;4916640;29;20190;-88
2022/04/07 12:32:27;;;;;;;1.43;1.00;;;;;;;16.22;44.13;94797.84;4889606;29;20278;-93
2022/04/07 12:34:55;;;;;;;0.90;0.90;;;;;;;17.32;44.00;94935.41;4878228;29;20180;-93
2022/04/07 12:37:28;;;;;;;1.27;0.90;;;;;;;16.16;44.44;94769.09;4863086;29;20199;-93
2022/04/07 12:39:55;;;;;;;0.97;0.90;;;;;;;14.27;44.08;94371.53;4897466;29;20227;-93
2022/04/07 12:42:22;;;;;;;1.13;0.90;;;;;;;17.58;44.12;94938.97;4883508;29;20203;-91
2022/04/07 12:44:49;;;;;;;1.20;1.10;;;;;;;18.05;44.08;95013.63;4889482;29;20179;-92
2022/04/07 12:47:16;;;;;;;0.97;0.97;;;;;;;17.63;44.18;94962.69;4883260;29;20311;-92
2022/04/07 12:49:56;;;;;;;0.90;0.90;;;;;;;18.90;44.11;95136.78;4875576;29;20445;-93
2022/04/07 12:52:39;;;;;;;0.80;0.80;;;;;;;19.95;44.18;95302.47;4889267;29;20203;-93
2022/04/07 12:55:07;;;;;;;1.30;1.03;;;;;;;17.30;43.96;94855.91;4893008;29;20230;-91
2022/04/07 12:57:38;;;;;;;2.07;1.10;;;;;;;17.14;44.16;94843.16;4896370;29;20351;-88
2022/04/07 13:00:25;;;;;;;1.10;0.80;;;;;;;18.88;44.14;95141.00;4866517;29;20666;-93
2022/04/07 13:02:53;;;;;;;1.93;0.70;;;;;;;17.86;44.13;94962.75;4892428;29;20230;-87
2022/04/07 13:05:24;;;;;;;0.80;0.80;;;;;;;17.84;44.13;94947.53;4880321;29;20215;-93
2022/04/07 13:29:40;;;;;;;0.90;0.90;;;;;;;13.60;44.08;94205.28;5616556;23;20228;-89
2022/04/07 18:34:47;;;;;;;1.17;1.07;;;;;;;19.93;44.49;95351.75;4803595;23;20242;-84
2022/04/07 18:37:16;;;;;;;2.00;1.00;;;;;;;18.11;44.37;95089.88;4884277;29;20214;-84
2022/04/07 18:40:09;;;;;;;1.00;1.00;;;;;;;19.43;44.43;95327.88;4891194;29;20836;-82
2022/04/07 18:42:44;;;;;;;0.90;0.90;;;;;;;19.62;44.34;95332.16;4880726;29;20206;-84
2022/04/07 18:45:12;;;;;;;1.03;1.03;;;;;;;18.89;44.67;95224.13;4862382;29;20235;-85
2022/04/07 18:47:39;;;;;;;1.20;1.10;;;;;;;19.62;44.37;95349.97;4850604;29;20245;-84
2022/04/07 18:50:06;;;;;;;1.30;1.20;;;;;;;17.78;44.29;95016.09;4862580;29;20213;-84
2022/04/07 18:52:40;;;;;;;0.90;0.90;;;;;;;17.52;44.42;95015.09;4847564;29;20322;-84
2022/04/07 18:55:12;;;;;;;1.07;1.00;;;;;;;19.94;44.24;95396.78;4850503;29;20230;-83
2022/04/07 18:57:41;;;;;;;1.00;1.00;;;;;;;19.93;44.21;95395.91;4864715;29;20207;-84
2022/04/07 19:00:16;;;;;;;0.90;0.90;;;;;;;18.33;44.32;95123.00;4848301;29;20215;-81
2022/04/07 19:02:43;;;;;;;1.23;1.00;;;;;;;19.87;44.42;95403.53;4846972;29;20214;-85
2022/04/07 19:05:15;;;;;;;1.17;1.00;;;;;;;19.93;44.45;95421.41;4845758;29;20249;-84
2022/04/07 19:07:42;;;;;;;1.00;1.00;;;;;;;19.18;44.35;95298.88;4847891;29;20207;-81
2022/04/07 19:10:09;;;;;;;0.90;0.90;;;;;;;17.81;44.17;95093.97;4820916;29;21038;-86
2022/04/07 19:12:45;;;;;;;1.00;1.00;;;;;;;18.70;44.30;95236.78;4846629;29;20213;-85
2022/04/07 19:15:12;;;;;;;1.20;1.10;;;;;;;19.63;44.46;95385.66;4864227;29;20237;-85
2022/04/07 19:17:38;;;;;;;1.10;1.10;;;;;;;19.94;44.45;95455.41;4829645;29;20284;-83
2022/04/07 19:20:15;;;;;;;0.90;0.90;;;;;;;19.37;44.45;95386.41;4836371;29;20214;-84
2022/04/07 19:22:45;;;;;;;1.10;1.00;;;;;;;14.74;44.23;94586.63;4852553;29;20787;-81
2022/04/07 19:25:12;;;;;;;1.00;1.00;;;;;;;19.93;44.38;95480.03;4858578;29;20245;-85
2022/04/07 19:27:38;;;;;;;0.80;0.80;;;;;;;19.94;44.32;95460.50;4860380;29;20214;-85
2022/04/07 19:30:05;;;;;;;1.00;1.00;;;;;;;19.64;44.41;95412.84;4871422;29;20221;-83
2022/04/07 19:32:32;;;;;;;0.80;0.80;;;;;;;19.62;44.02;95449.34;4855174;29;20223;-85
2022/04/07 19:35:00;;;;;;;1.00;1.00;;;;;;;19.94;44.41;95460.50;4848503;29;20274;-83
2022/04/07 19:37:35;;;;;;;1.30;1.20;;;;;;;19.94;44.38;95470.69;4831802;29;20761;-84
2022/04/07 19:40:09;;;;;;;0.90;0.90;;;;;;;19.48;44.53;95423.81;4847791;29;20673;-84
2022/04/07 19:42:38;;;;;;;1.07;1.00;;;;;;;19.93;44.26;95449.44;4834283;29;20298;-82
2022/04/07 19:45:10;;;;;;;1.10;1.00;;;;;;;19.43;44.28;95323.63;4862779;29;20594;-83
2022/04/07 19:47:37;;;;;;;1.00;1.00;;;;;;;19.93;44.30;95423.94;4835018;29;20222;-85
2022/04/07 19:50:09;;;;;;;2.20;0.90;;;;;;;19.93;44.31;95425.69;4845809;29;20267;-85
2022/04/07 19:52:38;;;;;;;1.23;1.13;;;;;;;18.99;44.39;95269.13;4863692;29;20894;-84
2022/04/07 19:55:05;;;;;;;0.97;0.97;;;;;;;19.61;44.40;95384.81;4848359;29;20325;-85
2022/04/07 19:57:35;;;;;;;1.10;0.93;;;;;;;19.29;44.52;95316.78;4860713;29;20218;-84
2022/04/07 20:00:05;;;;;;;1.30;1.20;;;;;;;19.50;44.32;95375.41;4849898;29;20582;-84
2022/04/07 20:02:32;;;;;;;1.00;1.00;;;;;;;19.90;44.39;95430.75;4850298;29;20272;-84
2022/04/07 20:05:03;;;;;;;1.07;0.90;;;;;;;19.94;44.50;95437.56;4859672;29;20242;-83
2022/04/07 20:07:30;;;;;;;0.73;0.73;;;;;;;19.93;44.54;95440.97;4863500;29;20591;-84
2022/04/07 20:09:57;;;;;;;1.33;1.03;;;;;;;19.30;44.45;95328.69;4847725;29;20436;-82
2022/04/07 20:12:27;;;;;;;0.90;0.90;;;;;;;17.47;44.56;95019.28;4863628;29;20294;-85
2022/04/07 20:14:54;;;;;;;0.87;0.87;;;;;;;19.92;44.39;95441.78;4835045;29;20239;-85
2022/04/07 20:17:25;;;;;;;1.00;1.00;;;;;;;18.98;44.46;95317.50;4861075;29;20270;-85
2022/04/07 20:19:53;;;;;;;1.10;1.00;;;;;;;19.93;44.29;95479.19;4865487;29;20203;-84
2022/04/07 20:22:20;;;;;;;0.90;0.90;;;;;;;19.93;44.35;95497.88;4861207;29;20215;-82
2022/04/07 20:24:47;;;;;;;0.93;0.93;;;;;;;19.62;44.27;95445.09;4861182;29;20346;-84
2022/04/07 20:27:15;;;;;;;0.90;0.90;;;;;;;18.83;44.42;95323.34;4834088;29;20215;-85
2022/04/07 20:29:48;;;;;;;0.90;0.90;;;;;;;19.92;44.41;95500.41;4863149;29;20573;-84
2022/04/07 20:32:15;;;;;;;0.80;0.80;;;;;;;19.92;44.37;95482.56;4859740;29;20693;-84
2022/04/07 20:34:42;;;;;;;1.20;1.10;;;;;;;19.93;44.30;95480.03;4861763;29;20716;-84
2022/04/07 20:37:12;;;;;;;1.13;0.93;;;;;;;19.44;44.49;95372.84;4852591;29;20275;-84
2022/04/07 20:39:38;;;;;;;0.97;0.97;;;;;;;19.60;44.45;95408.56;4852696;29;20299;-82
2022/04/07 20:42:09;;;;;;;1.10;1.00;;;;;;;19.92;44.64;95495.31;4852568;29;20242;-83
2022/04/07 20:44:43;;;;;;;0.77;0.77;;;;;;;19.92;44.47;95482.56;4853435;29;20297;-84
2022/04/07 20:47:09;;;;;;;1.03;0.90;;;;;;;19.13;44.47;95363.38;4867718;29;20278;-84
2022/04/07 20:49:44;;;;;;;0.90;0.90;;;;;;;19.91;44.49;95496.19;4838456;29;20227;-85
2022/04/07 20:52:16;;;;;;;1.07;1.07;;;;;;;18.52;44.47;95262.13;4869757;29;20282;-86
2022/04/07 20:54:44;;;;;;;0.90;0.90;;;;;;;19.91;44.55;95498.72;4872540;29;20254;-84
2022/04/07 20:57:14;;;;;;;1.00;0.90;;;;;;;19.92;44.73;95525.91;4881297;29;20211;-85
2022/04/07 20:59:41;;;;;;;0.90;0.90;;;;;;;19.91;44.34;95539.50;4858923;29;20529;-84
2022/04/07 21:02:07;;;;;;;0.80;0.80;;;;;;;15.56;44.68;94840.34;4876030;29;20203;-84
2022/04/07 21:04:35;;;;;;;0.80;0.80;;;;;;;19.91;44.32;95588.81;4873512;29;20961;-85
2022/04/07 21:07:02;;;;;;;1.60;0.90;;;;;;;17.53;44.46;95186.91;4855845;29;20256;-82
2022/04/07 21:09:34;;;;;;;0.90;0.90;;;;;;;17.53;44.50;95183.53;4865207;29;20219;-83
2022/04/07 21:12:06;;;;;;;0.90;0.90;;;;;;;19.92;44.58;95604.94;4849357;29;20214;-86
2022/04/07 21:14:35;;;;;;;1.00;1.00;;;;;;;19.91;44.48;95601.56;4878922;29;20239;-83
2022/04/07 21:17:07;;;;;;;1.10;1.00;;;;;;;17.03;44.41;95096.81;4878259;29;20222;-83
2022/04/07 21:19:33;;;;;;;1.00;1.00;;;;;;;19.11;44.34;95482.16;4870709;29;20196;-84
2022/04/07 21:22:00;;;;;;;1.27;1.17;;;;;;;19.92;44.38;95621.09;4845540;29;20207;-84
2022/04/07 21:24:27;;;;;;;0.80;0.80;;;;;;;19.91;44.39;95598.16;4849329;29;20593;-84
2022/04/07 21:26:53;;;;;;;0.90;0.90;;;;;;;19.89;44.64;95621.06;4881393;29;20214;-84
2022/04/07 21:29:23;;;;;;;0.93;0.93;;;;;;;19.66;44.49;95569.13;4849840;29;20234;-84
2022/04/07 21:31:50;;;;;;;2.00;1.20;;;;;;;15.59;44.27;94870.75;4879724;29;20624;-83
2022/04/07 21:34:29;;;;;;;1.00;1.00;;;;;;;11.32;44.51;94148.13;4850500;29;20230;-84
2022/04/07 21:36:55;;;;;;;1.00;1.00;;;;;;;19.89;44.56;95597.28;4865579;29;20242;-84
2022/04/07 21:39:24;;;;;;;1.10;1.00;;;;;;;19.90;44.58;95591.34;4880350;29;20203;-84
2022/04/07 21:41:52;;;;;;;0.90;0.90;;;;;;;18.80;44.37;95458.19;4850172;29;20214;-84
2022/04/07 21:44:22;;;;;;;1.10;1.00;;;;;;;17.84;44.62;95299.75;4849589;29;20238;-84
2022/04/07 21:46:49;;;;;;;2.17;1.00;;;;;;;19.89;44.51;95612.56;4864695;29;20246;-84
2022/04/07 21:49:15;;;;;;;0.90;0.90;;;;;;;19.88;44.68;95616.84;4880930;29;20227;-83
2022/04/07 21:51:42;;;;;;;0.90;0.90;;;;;;;19.88;44.43;95632.13;4880655;29;20195;-86
2022/04/07 21:54:11;;;;;;;0.90;0.90;;;;;;;17.66;44.68;95252.22;4880471;29;20227;-84
2022/04/07 21:56:40;;;;;;;0.90;0.90;;;;;;;19.88;44.62;95632.13;4864918;29;20211;-84
2022/04/07 21:59:08;;;;;;;0.90;0.90;;;;;;;16.62;44.53;95095.59;4864318;29;20677;-84
2022/04/07 22:01:44;;;;;;;0.87;0.87;;;;;;;19.88;44.60;95644.00;4848980;29;20222;-84
2022/04/07 22:04:12;;;;;;;1.03;0.97;;;;;;;19.88;44.71;95639.78;4880652;29;20227;-85
2022/04/07 22:06:41;;;;;;;0.90;0.90;;;;;;;16.61;44.72;95104.00;4880780;29;20689;-85
2022/04/07 22:09:08;;;;;;;1.10;1.10;;;;;;;19.07;44.60;95506.72;4864478;29;20279;-84
2022/04/07 22:11:38;;;;;;;1.00;0.90;;;;;;;15.28;44.48;94865.31;4864031;29;20207;-84
2022/04/07 22:14:04;;;;;;;0.90;0.90;;;;;;;19.87;44.68;95655.06;4879980;29;20223;-84
2022/04/07 22:16:34;;;;;;;0.80;0.80;;;;;;;19.86;44.60;95660.97;4880695;29;20263;-84
2022/04/07 22:19:06;;;;;;;0.70;0.70;;;;;;;19.86;44.47;95660.97;4880545;29;20203;-83
2022/04/07 22:21:37;;;;;;;1.20;1.10;;;;;;;19.86;44.71;95671.19;4880545;29;20206;-84
2022/04/07 22:24:04;;;;;;;0.90;0.90;;;;;;;18.37;44.23;95478.13;4878923;29;20227;-84
2022/04/07 22:26:31;;;;;;;1.00;1.00;;;;;;;14.83;44.59;94830.22;4864023;29;20576;-84
2022/04/07 22:28:57;;;;;;;0.97;0.90;;;;;;;19.88;44.80;95695.00;4880608;29;20219;-84
2022/04/07 22:31:24;;;;;;;1.07;1.00;;;;;;;19.86;44.56;95683.91;4880063;29;20207;-84
2022/04/07 22:34:00;;;;;;;0.87;0.87;;;;;;;19.86;44.69;95689.88;4865219;29;20641;-84
2022/04/07 22:36:26;;;;;;;0.90;0.90;;;;;;;19.86;44.65;95689.00;4880137;29;20218;-84
2022/04/07 22:39:15;;;;;;;0.80;0.80;;;;;;;19.86;44.75;95689.88;4853635;29;20292;-83
2022/04/07 22:41:41;;;;;;;1.00;1.00;;;;;;;18.78;44.62;95499.72;4880049;29;20207;-84
2022/04/07 22:44:16;;;;;;;0.80;0.80;;;;;;;19.86;44.61;95694.97;4880582;29;20668;-84
2022/04/07 22:46:45;;;;;;;0.93;0.90;;;;;;;17.73;44.46;95335.22;4864223;29;20203;-84
2022/04/07 22:49:12;;;;;;;0.80;0.80;;;;;;;19.86;44.53;95701.75;4863620;29;20227;-84
2022/04/07 22:51:38;;;;;;;0.80;0.80;;;;;;;19.86;44.68;95712.81;4880098;29;20203;-84
2022/04/07 22:54:05;;;;;;;1.10;1.00;;;;;;;19.86;44.73;95714.50;4879540;29;20650;-84
2022/04/07 22:56:32;;;;;;;1.10;1.00;;;;;;;19.86;44.59;95712.81;4863428;29;20689;-83
2022/04/07 22:58:58;;;;;;;1.00;1.00;;;;;;;19.68;44.74;95691.44;4848409;29;20203;-85
2022/04/07 23:01:29;;;;;;;0.90;0.90;;;;;;;19.56;44.71;95683.69;4863632;29;20215;-84
2022/04/07 23:03:59;;;;;;;0.80;0.80;;;;;;;19.86;44.99;95734.91;4879834;29;20263;-85
2022/04/07 23:06:29;;;;;;;0.80;0.80;;;;;;;19.85;44.64;95725.56;4863106;29;20250;-84
2022/04/07 23:09:00;;;;;;;0.80;0.80;;;;;;;19.85;44.67;95725.56;4863593;29;20318;-85
2022/04/07 23:11:30;;;;;;;0.80;0.80;;;;;;;16.87;44.64;95236.16;4847672;29;20218;-85
2022/04/07 23:14:10;;;;;;;0.97;0.87;;;;;;;16.86;44.65;95231.91;4847774;29;20231;-84
2022/04/07 23:16:37;;;;;;;2.17;1.03;;;;;;;19.85;44.51;95735.75;4848638;29;20215;-85
2022/04/07 23:19:10;;;;;;;0.80;0.80;;;;;;;18.35;44.49;95507.78;4862744;29;20238;-84
2022/04/07 23:21:38;;;;;;;0.90;0.90;;;;;;;19.85;44.73;95735.75;4863772;29;20207;-84
2022/04/07 23:24:05;;;;;;;1.17;1.10;;;;;;;19.84;44.73;95760.38;4861863;29;20305;-84
2022/04/07 23:26:37;;;;;;;0.90;0.90;;;;;;;19.85;44.70;95751.03;4879445;29;20207;-85
2022/04/07 23:29:04;;;;;;;0.90;0.90;;;;;;;19.64;44.69;95712.66;4877812;29;20230;-85
2022/04/07 23:31:31;;;;;;;0.97;0.97;;;;;;;10.78;44.57;94215.94;4847374;29;20211;-83
2022/04/07 23:33:59;;;;;;;0.90;0.90;;;;;;;12.73;44.46;94547.88;4879091;29;20238;-84
2022/04/07 23:36:26;;;;;;;1.10;0.90;;;;;;;19.66;44.76;95710.97;4862791;29;20207;-84
2022/04/07 23:38:53;;;;;;;1.03;1.03;;;;;;;19.79;44.86;95767.16;4847633;29;20271;-84
2022/04/07 23:41:22;;;;;;;1.00;0.90;;;;;;;19.05;44.55;95629.75;4861931;29;20286;-84
2022/04/07 23:43:51;;;;;;;0.90;0.90;;;;;;;17.73;44.55;95419.03;4846721;29;20252;-84